DLH71H EDDF-LEIB
Flight info
| Callsign | DLH71H |
|---|---|
| Flight time | 2h 5m |
| Altitude | 37000 |
| Route | ANEKI2L/18 ANEKI Y163 HERBI Y164 MOPAN DCT LUTIX DCT BENOT DCT NEMOS DCT GEVEA DCT INCUS DCT BALSI DCT RETNO DCT TUPOX DCT MTG DCT DIVKO DCT VATIR DCT PIVUS DCT SULID DCT DIMIB DCT POS |
| Aircraft | A20N/M-SDE2E3FGIJ1LORWXYZ/HB1 |
Departure
| Time | 2026-05-06 10:24 |
|---|---|
| Airport | Frankfurt Main Airport (EDDF) |
Arrival
| Time | 2026-05-06 12:29 |
|---|---|
| Airport | Ibiza Airport (LEIB) |
| Time | Latitude | Longitude | Altitude | Speed | Heading |
|---|---|---|---|---|---|
| 2026-05-06 09:54 | 50.03683 | 8.54055 | 354 ft | 0 kts | 160° |
| 2026-05-06 10:19 | 50.03679 | 8.54058 | 342 ft | 2 kts | 159° |
| 2026-05-06 10:19 | 50.03632 | 8.54085 | 344 ft | 10 kts | 160° |
| 2026-05-06 10:19 | 50.03596 | 8.54059 | 337 ft | 7 kts | 239° |
| 2026-05-06 10:20 | 50.03573 | 8.53969 | 339 ft | 12 kts | 250° |
| 2026-05-06 10:20 | 50.03533 | 8.53791 | 336 ft | 22 kts | 251° |
| 2026-05-06 10:20 | 50.03475 | 8.53553 | 336 ft | 25 kts | 248° |
| 2026-05-06 10:20 | 50.03416 | 8.53312 | 334 ft | 23 kts | 251° |
| 2026-05-06 10:21 | 50.03361 | 8.53075 | 332 ft | 24 kts | 248° |
| 2026-05-06 10:21 | 50.03302 | 8.52832 | 332 ft | 21 kts | 249° |
| 2026-05-06 10:21 | 50.03266 | 8.52690 | 333 ft | 4 kts | 248° |
| 2026-05-06 10:21 | 50.03255 | 8.52648 | 332 ft | 6 kts | 248° |
| 2026-05-06 10:22 | 50.03211 | 8.52594 | 331 ft | 10 kts | 189° |
| 2026-05-06 10:22 | 50.03190 | 8.52592 | 333 ft | 0 kts | 181° |
| 2026-05-06 10:23 | 50.03165 | 8.52594 | 335 ft | 16 kts | 173° |
| 2026-05-06 10:23 | 50.02932 | 8.52602 | 331 ft | 50 kts | 181° |
| 2026-05-06 10:23 | 50.02460 | 8.52601 | 335 ft | 93 kts | 179° |
| 2026-05-06 10:23 | 50.01630 | 8.52611 | 334 ft | 143 kts | 179° |
| 2026-05-06 10:24 | 50.00552 | 8.52639 | 666 ft | 156 kts | 181° |
| 2026-05-06 10:24 | 49.99465 | 8.52691 | 1268 ft | 163 kts | 180° |
| 2026-05-06 10:24 | 49.98306 | 8.52786 | 1844 ft | 167 kts | 179° |
| 2026-05-06 10:24 | 49.97102 | 8.52907 | 2256 ft | 181 kts | 177° |
| 2026-05-06 10:25 | 49.95776 | 8.53047 | 2599 ft | 201 kts | 179° |
| 2026-05-06 10:25 | 49.94317 | 8.53122 | 3028 ft | 220 kts | 180° |
| 2026-05-06 10:25 | 49.92756 | 8.53197 | 3795 ft | 225 kts | 180° |
| 2026-05-06 10:25 | 49.91241 | 8.53289 | 4787 ft | 227 kts | 179° |
| 2026-05-06 10:26 | 49.89677 | 8.53386 | 5789 ft | 230 kts | 179° |
| 2026-05-06 10:26 | 49.88066 | 8.53498 | 6722 ft | 233 kts | 179° |
| 2026-05-06 10:26 | 49.86435 | 8.53601 | 7676 ft | 236 kts | 179° |
| 2026-05-06 10:26 | 49.84783 | 8.53707 | 8617 ft | 239 kts | 179° |
| 2026-05-06 10:27 | 49.83092 | 8.53734 | 9414 ft | 251 kts | 184° |
| 2026-05-06 10:27 | 49.81267 | 8.53555 | 9881 ft | 274 kts | 188° |
| 2026-05-06 10:27 | 49.79307 | 8.53122 | 10302 ft | 296 kts | 189° |
| 2026-05-06 10:27 | 49.77187 | 8.52619 | 10661 ft | 319 kts | 189° |
| 2026-05-06 10:28 | 49.74951 | 8.52069 | 11300 ft | 329 kts | 190° |
| 2026-05-06 10:28 | 49.72678 | 8.51501 | 12209 ft | 333 kts | 190° |
| 2026-05-06 10:28 | 49.70380 | 8.50925 | 13098 ft | 337 kts | 190° |
| 2026-05-06 10:28 | 49.68053 | 8.50341 | 13923 ft | 341 kts | 190° |
| 2026-05-06 10:29 | 49.65699 | 8.49750 | 14688 ft | 345 kts | 190° |
| 2026-05-06 10:29 | 49.63327 | 8.49155 | 15474 ft | 348 kts | 189° |
| 2026-05-06 10:29 | 49.60925 | 8.48553 | 16233 ft | 351 kts | 189° |
| 2026-05-06 10:29 | 49.58504 | 8.47948 | 16999 ft | 355 kts | 189° |
| 2026-05-06 10:30 | 49.56047 | 8.47334 | 17791 ft | 359 kts | 189° |
| 2026-05-06 10:30 | 49.53563 | 8.46714 | 18473 ft | 363 kts | 189° |
| 2026-05-06 10:30 | 49.51064 | 8.46093 | 19134 ft | 366 kts | 189° |
| 2026-05-06 10:30 | 49.48541 | 8.45467 | 19772 ft | 369 kts | 189° |
| 2026-05-06 10:31 | 49.45991 | 8.44834 | 20415 ft | 372 kts | 189° |
| 2026-05-06 10:31 | 49.43416 | 8.44195 | 21040 ft | 376 kts | 190° |
| 2026-05-06 10:31 | 49.40828 | 8.43554 | 21660 ft | 379 kts | 190° |
| 2026-05-06 10:31 | 49.38207 | 8.42906 | 22276 ft | 383 kts | 190° |
| 2026-05-06 10:32 | 49.35568 | 8.42253 | 22893 ft | 386 kts | 190° |
| 2026-05-06 10:32 | 49.32907 | 8.41596 | 23470 ft | 389 kts | 190° |
| 2026-05-06 10:32 | 49.30223 | 8.40934 | 24040 ft | 390 kts | 190° |
| 2026-05-06 10:32 | 49.27549 | 8.40275 | 24639 ft | 390 kts | 190° |
| 2026-05-06 10:33 | 49.24862 | 8.39613 | 25189 ft | 392 kts | 189° |
| 2026-05-06 10:33 | 49.22165 | 8.38950 | 25731 ft | 393 kts | 189° |
| 2026-05-06 10:33 | 49.19491 | 8.38293 | 26237 ft | 395 kts | 189° |
| 2026-05-06 10:33 | 49.16745 | 8.37620 | 26749 ft | 396 kts | 189° |
| 2026-05-06 10:34 | 49.14014 | 8.36951 | 27238 ft | 398 kts | 189° |
| 2026-05-06 10:34 | 49.11276 | 8.36281 | 27705 ft | 399 kts | 189° |
| 2026-05-06 10:34 | 49.08526 | 8.35609 | 28159 ft | 401 kts | 189° |
| 2026-05-06 10:34 | 49.05806 | 8.34945 | 28587 ft | 403 kts | 189° |
| 2026-05-06 10:35 | 49.03031 | 8.34268 | 28986 ft | 405 kts | 189° |
| 2026-05-06 10:35 | 49.00246 | 8.33589 | 29393 ft | 407 kts | 189° |
| 2026-05-06 10:35 | 48.97442 | 8.32906 | 29795 ft | 409 kts | 189° |
| 2026-05-06 10:35 | 48.94626 | 8.32222 | 30139 ft | 411 kts | 189° |
| 2026-05-06 10:36 | 48.91795 | 8.31534 | 30469 ft | 413 kts | 189° |
| 2026-05-06 10:36 | 48.88956 | 8.30846 | 30831 ft | 414 kts | 189° |
| 2026-05-06 10:36 | 48.86103 | 8.30155 | 31237 ft | 414 kts | 189° |
| 2026-05-06 10:36 | 48.83264 | 8.29468 | 31701 ft | 413 kts | 189° |
| 2026-05-06 10:37 | 48.80435 | 8.28784 | 32178 ft | 410 kts | 189° |
| 2026-05-06 10:37 | 48.77628 | 8.28107 | 32678 ft | 407 kts | 189° |
| 2026-05-06 10:37 | 48.74838 | 8.27435 | 33172 ft | 405 kts | 190° |
| 2026-05-06 10:37 | 48.72059 | 8.26764 | 33610 ft | 404 kts | 190° |
| 2026-05-06 10:38 | 48.69285 | 8.26097 | 33999 ft | 402 kts | 190° |
| 2026-05-06 10:38 | 48.66520 | 8.25432 | 34238 ft | 404 kts | 190° |
| 2026-05-06 10:38 | 48.63740 | 8.24764 | 34482 ft | 405 kts | 190° |
| 2026-05-06 10:38 | 48.60952 | 8.24095 | 34719 ft | 406 kts | 190° |
| 2026-05-06 10:39 | 48.58159 | 8.23426 | 34938 ft | 407 kts | 190° |
| 2026-05-06 10:39 | 48.55357 | 8.22756 | 35187 ft | 408 kts | 190° |
| 2026-05-06 10:39 | 48.52555 | 8.22086 | 35398 ft | 409 kts | 190° |
| 2026-05-06 10:39 | 48.49742 | 8.21414 | 35643 ft | 409 kts | 190° |
| 2026-05-06 10:40 | 48.46925 | 8.20742 | 35874 ft | 410 kts | 190° |
| 2026-05-06 10:40 | 48.44106 | 8.20071 | 36087 ft | 411 kts | 190° |
| 2026-05-06 10:40 | 48.41277 | 8.19398 | 36281 ft | 412 kts | 190° |
| 2026-05-06 10:40 | 48.38442 | 8.18725 | 36499 ft | 413 kts | 190° |
| 2026-05-06 10:41 | 48.35605 | 8.18052 | 36715 ft | 413 kts | 190° |
| 2026-05-06 10:41 | 48.32796 | 8.17384 | 36810 ft | 414 kts | 190° |
| 2026-05-06 10:41 | 48.27143 | 8.15905 | 36806 ft | 411 kts | 194° |
| 2026-05-06 10:42 | 48.21669 | 8.13229 | 36810 ft | 412 kts | 203° |
| 2026-05-06 10:42 | 48.16508 | 8.09473 | 36812 ft | 413 kts | 206° |
| 2026-05-06 10:43 | 48.11412 | 8.05676 | 36818 ft | 412 kts | 206° |
| 2026-05-06 10:44 | 48.03685 | 7.99980 | 36813 ft | 414 kts | 206° |
| 2026-05-06 10:44 | 47.98501 | 7.96173 | 36830 ft | 415 kts | 206° |
| 2026-05-06 10:45 | 47.93314 | 7.92372 | 36831 ft | 416 kts | 206° |
| 2026-05-06 10:45 | 47.88113 | 7.88569 | 36831 ft | 416 kts | 206° |
| 2026-05-06 10:46 | 47.82918 | 7.84778 | 36837 ft | 416 kts | 206° |
| 2026-05-06 10:46 | 47.77790 | 7.81045 | 36845 ft | 416 kts | 206° |
| 2026-05-06 10:47 | 47.72590 | 7.77269 | 36844 ft | 416 kts | 206° |
| 2026-05-06 10:47 | 47.67381 | 7.73494 | 36848 ft | 416 kts | 206° |
| 2026-05-06 10:48 | 47.62176 | 7.69731 | 36854 ft | 416 kts | 206° |
| 2026-05-06 10:48 | 47.56971 | 7.65976 | 36851 ft | 416 kts | 206° |
| 2026-05-06 10:49 | 47.51767 | 7.62230 | 36855 ft | 416 kts | 206° |
| 2026-05-06 10:49 | 47.46557 | 7.58488 | 36861 ft | 416 kts | 206° |
| 2026-05-06 10:50 | 47.41357 | 7.54761 | 36856 ft | 415 kts | 206° |
| 2026-05-06 10:50 | 47.36160 | 7.51045 | 36842 ft | 415 kts | 206° |
| 2026-05-06 10:51 | 47.30971 | 7.47343 | 36837 ft | 414 kts | 206° |
| 2026-05-06 10:51 | 47.25791 | 7.43655 | 36855 ft | 413 kts | 206° |
| 2026-05-06 10:52 | 47.20629 | 7.39924 | 36840 ft | 413 kts | 209° |
| 2026-05-06 10:52 | 47.16674 | 7.36002 | 36857 ft | 414 kts | 219° |
| 2026-05-06 10:53 | 47.12627 | 7.30003 | 36847 ft | 415 kts | 230° |
| 2026-05-06 10:53 | 47.08463 | 7.22251 | 36852 ft | 416 kts | 230° |
| 2026-05-06 10:54 | 47.05447 | 7.16696 | 36847 ft | 416 kts | 230° |
| 2026-05-06 10:54 | 47.01838 | 7.10081 | 36871 ft | 416 kts | 230° |
| 2026-05-06 10:55 | 46.98222 | 7.03470 | 36869 ft | 416 kts | 230° |
| 2026-05-06 10:55 | 46.94603 | 6.96869 | 36874 ft | 416 kts | 229° |
| 2026-05-06 10:56 | 46.90819 | 6.90479 | 36859 ft | 415 kts | 223° |
| 2026-05-06 10:56 | 46.86457 | 6.84979 | 36866 ft | 414 kts | 218° |
| 2026-05-06 10:57 | 46.81980 | 6.79670 | 36884 ft | 415 kts | 218° |
| 2026-05-06 10:57 | 46.77531 | 6.74381 | 36880 ft | 415 kts | 218° |
| 2026-05-06 10:58 | 46.73045 | 6.69057 | 36879 ft | 416 kts | 218° |
| 2026-05-06 10:58 | 46.68523 | 6.63703 | 36880 ft | 416 kts | 218° |
| 2026-05-06 10:59 | 46.64025 | 6.58391 | 36871 ft | 417 kts | 218° |
| 2026-05-06 10:59 | 46.59728 | 6.53325 | 36879 ft | 417 kts | 218° |
| 2026-05-06 11:00 | 46.55219 | 6.48022 | 36874 ft | 416 kts | 218° |
| 2026-05-06 11:00 | 46.50726 | 6.42749 | 36882 ft | 415 kts | 218° |
| 2026-05-06 11:01 | 46.46231 | 6.37486 | 36886 ft | 415 kts | 218° |
| 2026-05-06 11:01 | 46.41736 | 6.32233 | 36903 ft | 415 kts | 218° |
| 2026-05-06 11:02 | 46.37298 | 6.27058 | 36921 ft | 415 kts | 218° |
| 2026-05-06 11:02 | 46.32795 | 6.21819 | 36910 ft | 415 kts | 218° |
| 2026-05-06 11:03 | 46.28223 | 6.16748 | 36906 ft | 415 kts | 212° |
| 2026-05-06 11:03 | 46.23015 | 6.13151 | 36907 ft | 416 kts | 199° |
| 2026-05-06 11:04 | 46.17340 | 6.11417 | 36915 ft | 419 kts | 190° |
| 2026-05-06 11:04 | 46.11576 | 6.10156 | 36919 ft | 419 kts | 191° |
| 2026-05-06 11:05 | 46.05816 | 6.08877 | 36949 ft | 419 kts | 191° |
| 2026-05-06 11:05 | 46.00052 | 6.07599 | 36957 ft | 419 kts | 191° |
| 2026-05-06 11:06 | 45.94293 | 6.06327 | 36956 ft | 419 kts | 191° |
| 2026-05-06 11:06 | 45.88531 | 6.05056 | 36952 ft | 418 kts | 191° |
| 2026-05-06 11:07 | 45.82781 | 6.03791 | 36947 ft | 418 kts | 191° |
| 2026-05-06 11:07 | 45.77030 | 6.02519 | 36947 ft | 417 kts | 191° |
| 2026-05-06 11:08 | 45.71296 | 6.01253 | 36979 ft | 417 kts | 192° |
| 2026-05-06 11:08 | 45.65633 | 6.00009 | 36968 ft | 416 kts | 192° |
| 2026-05-06 11:09 | 45.59966 | 5.98763 | 36967 ft | 415 kts | 192° |
| 2026-05-06 11:09 | 45.54255 | 5.97510 | 36959 ft | 415 kts | 192° |
| 2026-05-06 11:10 | 45.48556 | 5.96263 | 36967 ft | 414 kts | 192° |
| 2026-05-06 11:10 | 45.42936 | 5.94598 | 36939 ft | 412 kts | 195° |
| 2026-05-06 11:11 | 45.37338 | 5.92834 | 36933 ft | 411 kts | 195° |
| 2026-05-06 11:11 | 45.31746 | 5.91086 | 36926 ft | 410 kts | 195° |
| 2026-05-06 11:12 | 45.26160 | 5.89348 | 36926 ft | 411 kts | 195° |
| 2026-05-06 11:12 | 45.20577 | 5.87614 | 36916 ft | 411 kts | 195° |
| 2026-05-06 11:13 | 45.15004 | 5.85886 | 36926 ft | 410 kts | 195° |
| 2026-05-06 11:13 | 45.09430 | 5.84162 | 36924 ft | 410 kts | 195° |
| 2026-05-06 11:14 | 45.03847 | 5.82437 | 36931 ft | 411 kts | 195° |
| 2026-05-06 11:14 | 44.98362 | 5.80745 | 36912 ft | 409 kts | 196° |
| 2026-05-06 11:15 | 44.92814 | 5.79040 | 36921 ft | 408 kts | 196° |
| 2026-05-06 11:15 | 44.87260 | 5.77335 | 36910 ft | 408 kts | 196° |
| 2026-05-06 11:16 | 44.81722 | 5.75638 | 36914 ft | 407 kts | 196° |
| 2026-05-06 11:16 | 44.76187 | 5.73947 | 36921 ft | 406 kts | 196° |
| 2026-05-06 11:17 | 44.70669 | 5.72257 | 36909 ft | 406 kts | 196° |
| 2026-05-06 11:17 | 44.65150 | 5.70579 | 36906 ft | 405 kts | 196° |
| 2026-05-06 11:18 | 44.59637 | 5.68904 | 36913 ft | 405 kts | 196° |
| 2026-05-06 11:18 | 44.54117 | 5.67229 | 36913 ft | 405 kts | 196° |
| 2026-05-06 11:19 | 44.48612 | 5.65561 | 36908 ft | 405 kts | 196° |
| 2026-05-06 11:19 | 44.43091 | 5.63891 | 36929 ft | 407 kts | 196° |
| 2026-05-06 11:20 | 44.37674 | 5.62079 | 36909 ft | 402 kts | 201° |
| 2026-05-06 11:20 | 44.32456 | 5.59343 | 36921 ft | 401 kts | 205° |
| 2026-05-06 11:21 | 44.27274 | 5.56479 | 36921 ft | 400 kts | 204° |
| 2026-05-06 11:21 | 44.22092 | 5.53640 | 36906 ft | 400 kts | 204° |
| 2026-05-06 11:22 | 44.16947 | 5.50833 | 36920 ft | 400 kts | 204° |
| 2026-05-06 11:22 | 44.11721 | 5.47985 | 36925 ft | 402 kts | 204° |
| 2026-05-06 11:23 | 44.06548 | 5.45174 | 36914 ft | 400 kts | 204° |
| 2026-05-06 11:23 | 44.01363 | 5.42361 | 36914 ft | 400 kts | 204° |
| 2026-05-06 11:24 | 43.96180 | 5.39552 | 36920 ft | 400 kts | 204° |
| 2026-05-06 11:24 | 43.90994 | 5.36745 | 36915 ft | 400 kts | 205° |
| 2026-05-06 11:25 | 43.85811 | 5.33943 | 36922 ft | 400 kts | 205° |
| 2026-05-06 11:25 | 43.80620 | 5.31143 | 36934 ft | 400 kts | 205° |
| 2026-05-06 11:26 | 43.75433 | 5.28351 | 36937 ft | 400 kts | 205° |
| 2026-05-06 11:26 | 43.70231 | 5.25556 | 36941 ft | 401 kts | 205° |
| 2026-05-06 11:27 | 43.65053 | 5.22779 | 36938 ft | 400 kts | 205° |
| 2026-05-06 11:27 | 43.59855 | 5.19996 | 36938 ft | 400 kts | 205° |
| 2026-05-06 11:28 | 43.54664 | 5.17223 | 36940 ft | 400 kts | 205° |
| 2026-05-06 11:28 | 43.49475 | 5.14455 | 36936 ft | 400 kts | 205° |
| 2026-05-06 11:29 | 43.44284 | 5.11692 | 36941 ft | 400 kts | 205° |
| 2026-05-06 11:29 | 43.39158 | 5.08726 | 36936 ft | 398 kts | 210° |
| 2026-05-06 11:30 | 43.34456 | 5.04800 | 36938 ft | 395 kts | 217° |
| 2026-05-06 11:30 | 43.29934 | 5.00496 | 36939 ft | 395 kts | 217° |
| 2026-05-06 11:31 | 43.25404 | 4.96223 | 36935 ft | 395 kts | 217° |
| 2026-05-06 11:31 | 43.20870 | 4.91965 | 36938 ft | 395 kts | 217° |
| 2026-05-06 11:32 | 43.16328 | 4.87708 | 36942 ft | 395 kts | 217° |
| 2026-05-06 11:32 | 43.11785 | 4.83458 | 36944 ft | 395 kts | 217° |
| 2026-05-06 11:33 | 43.07246 | 4.79218 | 36954 ft | 395 kts | 217° |
| 2026-05-06 11:33 | 43.02558 | 4.75353 | 36949 ft | 397 kts | 212° |
| 2026-05-06 11:34 | 42.97728 | 4.71705 | 36953 ft | 397 kts | 212° |
| 2026-05-06 11:34 | 42.92981 | 4.68111 | 36952 ft | 397 kts | 212° |
| 2026-05-06 11:35 | 42.88130 | 4.64440 | 36953 ft | 399 kts | 212° |
| 2026-05-06 11:35 | 42.83271 | 4.60774 | 36949 ft | 399 kts | 212° |
| 2026-05-06 11:36 | 42.78418 | 4.57116 | 36955 ft | 399 kts | 212° |
| 2026-05-06 11:36 | 42.73558 | 4.53460 | 36959 ft | 399 kts | 212° |
| 2026-05-06 11:37 | 42.68703 | 4.49816 | 36957 ft | 399 kts | 212° |
| 2026-05-06 11:37 | 42.63849 | 4.46178 | 36962 ft | 399 kts | 212° |
| 2026-05-06 11:38 | 42.58987 | 4.42540 | 36963 ft | 399 kts | 212° |
| 2026-05-06 11:38 | 42.54130 | 4.38913 | 36965 ft | 399 kts | 212° |
| 2026-05-06 11:39 | 42.49267 | 4.35288 | 36967 ft | 399 kts | 212° |
| 2026-05-06 11:39 | 42.44408 | 4.31672 | 36967 ft | 399 kts | 212° |
| 2026-05-06 11:40 | 42.40361 | 4.28666 | 36969 ft | 399 kts | 212° |
| 2026-05-06 11:40 | 42.35500 | 4.25061 | 36973 ft | 399 kts | 212° |
| 2026-05-06 11:41 | 42.30638 | 4.21461 | 36975 ft | 399 kts | 212° |
| 2026-05-06 11:41 | 42.25558 | 4.18333 | 36962 ft | 408 kts | 203° |
| 2026-05-06 11:42 | 42.20128 | 4.15854 | 36970 ft | 415 kts | 202° |
| 2026-05-06 11:42 | 42.14767 | 4.13368 | 36970 ft | 413 kts | 203° |
| 2026-05-06 11:43 | 42.09335 | 4.10796 | 36964 ft | 414 kts | 203° |
| 2026-05-06 11:43 | 42.03905 | 4.08217 | 36967 ft | 414 kts | 203° |
| 2026-05-06 11:44 | 41.95779 | 4.04368 | 36966 ft | 413 kts | 203° |
| 2026-05-06 11:44 | 41.90357 | 4.01807 | 36973 ft | 413 kts | 203° |
| 2026-05-06 11:45 | 41.84932 | 3.99249 | 36968 ft | 413 kts | 203° |
| 2026-05-06 11:45 | 41.79515 | 3.96699 | 36975 ft | 413 kts | 203° |
| 2026-05-06 11:46 | 41.74098 | 3.94153 | 36966 ft | 413 kts | 203° |
| 2026-05-06 11:46 | 41.68676 | 3.91610 | 36971 ft | 413 kts | 203° |
| 2026-05-06 11:47 | 41.63259 | 3.89074 | 36970 ft | 413 kts | 204° |
| 2026-05-06 11:47 | 41.57875 | 3.86557 | 36971 ft | 413 kts | 203° |
| 2026-05-06 11:48 | 41.52419 | 3.84012 | 36972 ft | 413 kts | 203° |
| 2026-05-06 11:48 | 41.47034 | 3.81504 | 36969 ft | 413 kts | 204° |
| 2026-05-06 11:49 | 41.41580 | 3.78969 | 36973 ft | 412 kts | 204° |
| 2026-05-06 11:49 | 41.36195 | 3.76470 | 36969 ft | 412 kts | 204° |
| 2026-05-06 11:50 | 41.30852 | 3.73995 | 36974 ft | 412 kts | 204° |
| 2026-05-06 11:50 | 41.25434 | 3.71489 | 36982 ft | 412 kts | 204° |
| 2026-05-06 11:51 | 41.20015 | 3.68987 | 36977 ft | 413 kts | 204° |
| 2026-05-06 11:51 | 41.14587 | 3.66486 | 36971 ft | 413 kts | 204° |
| 2026-05-06 11:52 | 41.09164 | 3.63991 | 36967 ft | 413 kts | 204° |
| 2026-05-06 11:52 | 41.03734 | 3.61498 | 36962 ft | 413 kts | 204° |
| 2026-05-06 11:53 | 40.98311 | 3.59012 | 36962 ft | 413 kts | 204° |
| 2026-05-06 11:53 | 40.92888 | 3.56530 | 36965 ft | 413 kts | 204° |
| 2026-05-06 11:54 | 40.87456 | 3.54049 | 36966 ft | 413 kts | 204° |
| 2026-05-06 11:54 | 40.82029 | 3.51574 | 36970 ft | 413 kts | 204° |
| 2026-05-06 11:55 | 40.76601 | 3.49103 | 36964 ft | 413 kts | 204° |
| 2026-05-06 11:55 | 40.71163 | 3.46632 | 36966 ft | 413 kts | 204° |
| 2026-05-06 11:56 | 40.65771 | 3.44186 | 36969 ft | 413 kts | 204° |
| 2026-05-06 11:56 | 40.60332 | 3.41723 | 36966 ft | 413 kts | 204° |
| 2026-05-06 11:57 | 40.54902 | 3.39268 | 36968 ft | 413 kts | 204° |
| 2026-05-06 11:57 | 40.49467 | 3.36815 | 36965 ft | 413 kts | 204° |
| 2026-05-06 11:58 | 40.44027 | 3.34364 | 36966 ft | 413 kts | 204° |
| 2026-05-06 11:58 | 40.38591 | 3.31919 | 36965 ft | 413 kts | 204° |
| 2026-05-06 11:59 | 40.33154 | 3.29478 | 36961 ft | 413 kts | 204° |
| 2026-05-06 11:59 | 40.27708 | 3.27037 | 36961 ft | 414 kts | 204° |
| 2026-05-06 12:00 | 40.22256 | 3.24597 | 36962 ft | 414 kts | 204° |
| 2026-05-06 12:00 | 40.16810 | 3.22164 | 36965 ft | 414 kts | 204° |
| 2026-05-06 12:01 | 40.11360 | 3.19734 | 36965 ft | 414 kts | 204° |
| 2026-05-06 12:01 | 40.05912 | 3.17308 | 36963 ft | 414 kts | 204° |
| 2026-05-06 12:02 | 40.00459 | 3.14884 | 36963 ft | 414 kts | 204° |
| 2026-05-06 12:02 | 39.95006 | 3.12459 | 36963 ft | 414 kts | 204° |
| 2026-05-06 12:03 | 39.89796 | 3.09358 | 36962 ft | 409 kts | 213° |
| 2026-05-06 12:03 | 39.85197 | 3.05977 | 36961 ft | 409 kts | 213° |
| 2026-05-06 12:04 | 39.80232 | 3.02354 | 36952 ft | 410 kts | 213° |
| 2026-05-06 12:04 | 39.75260 | 2.98742 | 36951 ft | 410 kts | 213° |
| 2026-05-06 12:05 | 39.70284 | 2.95134 | 36940 ft | 410 kts | 213° |
| 2026-05-06 12:05 | 39.65306 | 2.91533 | 36940 ft | 410 kts | 213° |
| 2026-05-06 12:06 | 39.60321 | 2.87931 | 36939 ft | 410 kts | 213° |
| 2026-05-06 12:06 | 39.55375 | 2.84363 | 36948 ft | 410 kts | 213° |
| 2026-05-06 12:07 | 39.50451 | 2.80818 | 36936 ft | 410 kts | 213° |
| 2026-05-06 12:07 | 39.47960 | 2.79027 | 36733 ft | 409 kts | 213° |
| 2026-05-06 12:07 | 39.45547 | 2.77091 | 36295 ft | 408 kts | 219° |
| 2026-05-06 12:08 | 39.43320 | 2.74828 | 35831 ft | 405 kts | 224° |
| 2026-05-06 12:08 | 39.41316 | 2.72292 | 35385 ft | 403 kts | 230° |
| 2026-05-06 12:08 | 39.39519 | 2.69518 | 34946 ft | 402 kts | 233° |
| 2026-05-06 12:08 | 39.37767 | 2.66706 | 34513 ft | 403 kts | 232° |
| 2026-05-06 12:09 | 39.35997 | 2.63883 | 34082 ft | 405 kts | 232° |
| 2026-05-06 12:09 | 39.34214 | 2.61052 | 33603 ft | 405 kts | 232° |
| 2026-05-06 12:09 | 39.32429 | 2.58224 | 33122 ft | 407 kts | 232° |
| 2026-05-06 12:09 | 39.30635 | 2.55385 | 32632 ft | 409 kts | 232° |
| 2026-05-06 12:10 | 39.28836 | 2.52540 | 32174 ft | 411 kts | 232° |
| 2026-05-06 12:10 | 39.27024 | 2.49678 | 31714 ft | 413 kts | 232° |
| 2026-05-06 12:10 | 39.25205 | 2.46808 | 31258 ft | 415 kts | 232° |
| 2026-05-06 12:10 | 39.23377 | 2.43925 | 30814 ft | 416 kts | 232° |
| 2026-05-06 12:11 | 39.21539 | 2.41029 | 30369 ft | 414 kts | 232° |
| 2026-05-06 12:11 | 39.19724 | 2.38174 | 29925 ft | 410 kts | 232° |
| 2026-05-06 12:11 | 39.17926 | 2.35346 | 29415 ft | 407 kts | 232° |
| 2026-05-06 12:11 | 39.16141 | 2.32539 | 28921 ft | 404 kts | 232° |
| 2026-05-06 12:12 | 39.14363 | 2.29748 | 28428 ft | 402 kts | 232° |
| 2026-05-06 12:12 | 39.12609 | 2.26963 | 27945 ft | 399 kts | 235° |
| 2026-05-06 12:12 | 39.11201 | 2.23914 | 27475 ft | 395 kts | 244° |
| 2026-05-06 12:12 | 39.10004 | 2.20787 | 26953 ft | 394 kts | 244° |
| 2026-05-06 12:13 | 39.08773 | 2.17568 | 25901 ft | 400 kts | 244° |
| 2026-05-06 12:13 | 39.07558 | 2.14377 | 25029 ft | 402 kts | 244° |
| 2026-05-06 12:13 | 39.06334 | 2.11158 | 24347 ft | 399 kts | 244° |
| 2026-05-06 12:13 | 39.05123 | 2.07968 | 23650 ft | 396 kts | 244° |
| 2026-05-06 12:14 | 39.03916 | 2.04793 | 22854 ft | 393 kts | 244° |
| 2026-05-06 12:14 | 39.02723 | 2.01655 | 22100 ft | 389 kts | 244° |
| 2026-05-06 12:14 | 39.01539 | 1.98545 | 21352 ft | 386 kts | 244° |
| 2026-05-06 12:14 | 39.00363 | 1.95461 | 20608 ft | 383 kts | 244° |
| 2026-05-06 12:15 | 38.99193 | 1.92394 | 19871 ft | 381 kts | 244° |
| 2026-05-06 12:15 | 38.98025 | 1.89336 | 19162 ft | 378 kts | 244° |
| 2026-05-06 12:15 | 38.96907 | 1.86412 | 18485 ft | 376 kts | 244° |
| 2026-05-06 12:15 | 38.95756 | 1.83404 | 17752 ft | 374 kts | 244° |
| 2026-05-06 12:16 | 38.94613 | 1.80420 | 17022 ft | 370 kts | 244° |
| 2026-05-06 12:16 | 38.93483 | 1.77475 | 16339 ft | 366 kts | 244° |
| 2026-05-06 12:16 | 38.92360 | 1.74548 | 15644 ft | 363 kts | 244° |
| 2026-05-06 12:16 | 38.91249 | 1.71657 | 14967 ft | 360 kts | 244° |
| 2026-05-06 12:17 | 38.90136 | 1.68762 | 13913 ft | 367 kts | 244° |
| 2026-05-06 12:17 | 38.88989 | 1.65781 | 12750 ft | 375 kts | 244° |
| 2026-05-06 12:17 | 38.87835 | 1.62785 | 11878 ft | 374 kts | 244° |
| 2026-05-06 12:17 | 38.86681 | 1.59793 | 11076 ft | 372 kts | 244° |
| 2026-05-06 12:18 | 38.85538 | 1.56833 | 10326 ft | 369 kts | 244° |
| 2026-05-06 12:18 | 38.84418 | 1.53937 | 9983 ft | 352 kts | 244° |
| 2026-05-06 12:18 | 38.83366 | 1.51221 | 9746 ft | 328 kts | 244° |
| 2026-05-06 12:18 | 38.82386 | 1.48690 | 9522 ft | 306 kts | 244° |
| 2026-05-06 12:19 | 38.81471 | 1.46328 | 9322 ft | 287 kts | 244° |
| 2026-05-06 12:19 | 38.80612 | 1.44102 | 9060 ft | 271 kts | 244° |
| 2026-05-06 12:19 | 38.79786 | 1.41976 | 8692 ft | 261 kts | 243° |
| 2026-05-06 12:19 | 38.78973 | 1.39985 | 8329 ft | 252 kts | 242° |
| 2026-05-06 12:20 | 38.78150 | 1.38029 | 7999 ft | 246 kts | 242° |
| 2026-05-06 12:20 | 38.77355 | 1.36134 | 7667 ft | 238 kts | 242° |
| 2026-05-06 12:20 | 38.76578 | 1.34266 | 7131 ft | 239 kts | 242° |
| 2026-05-06 12:20 | 38.75795 | 1.32377 | 6567 ft | 241 kts | 242° |
| 2026-05-06 12:21 | 38.75022 | 1.30513 | 6371 ft | 235 kts | 242° |
| 2026-05-06 12:21 | 38.74261 | 1.28681 | 6087 ft | 232 kts | 241° |
| 2026-05-06 12:21 | 38.73503 | 1.26855 | 5703 ft | 233 kts | 241° |
| 2026-05-06 12:21 | 38.72739 | 1.25023 | 5329 ft | 233 kts | 241° |
| 2026-05-06 12:22 | 38.71977 | 1.23197 | 4956 ft | 233 kts | 241° |
| 2026-05-06 12:22 | 38.71212 | 1.21364 | 4561 ft | 234 kts | 241° |
| 2026-05-06 12:22 | 38.70435 | 1.19504 | 4107 ft | 238 kts | 241° |
| 2026-05-06 12:22 | 38.69861 | 1.17518 | 3640 ft | 241 kts | 265° |
| 2026-05-06 12:23 | 38.70133 | 1.15446 | 3337 ft | 235 kts | 298° |
| 2026-05-06 12:23 | 38.71177 | 1.13921 | 3087 ft | 225 kts | 331° |
| 2026-05-06 12:23 | 38.72622 | 1.13356 | 2836 ft | 216 kts | 2° |
| 2026-05-06 12:23 | 38.74058 | 1.13712 | 2586 ft | 208 kts | 20° |
| 2026-05-06 12:24 | 38.75426 | 1.14244 | 2335 ft | 205 kts | 19° |
| 2026-05-06 12:24 | 38.76781 | 1.14755 | 2080 ft | 201 kts | 23° |
| 2026-05-06 12:24 | 38.77933 | 1.15651 | 1999 ft | 187 kts | 44° |
| 2026-05-06 12:24 | 38.78780 | 1.16940 | 2001 ft | 191 kts | 57° |
| 2026-05-06 12:25 | 38.79433 | 1.18349 | 1994 ft | 177 kts | 61° |
| 2026-05-06 12:25 | 38.79987 | 1.19692 | 2019 ft | 166 kts | 61° |
| 2026-05-06 12:25 | 38.80543 | 1.21021 | 2005 ft | 173 kts | 62° |
| 2026-05-06 12:25 | 38.81084 | 1.22338 | 1998 ft | 156 kts | 61° |
| 2026-05-06 12:26 | 38.81568 | 1.23509 | 1993 ft | 145 kts | 61° |
| 2026-05-06 12:26 | 38.82045 | 1.24658 | 1934 ft | 144 kts | 60° |
| 2026-05-06 12:26 | 38.82494 | 1.25739 | 1775 ft | 129 kts | 62° |
| 2026-05-06 12:26 | 38.82891 | 1.26701 | 1612 ft | 116 kts | 60° |
| 2026-05-06 12:27 | 38.83271 | 1.27620 | 1456 ft | 119 kts | 62° |
| 2026-05-06 12:27 | 38.83658 | 1.28579 | 1286 ft | 123 kts | 60° |
| 2026-05-06 12:27 | 38.84059 | 1.29527 | 1109 ft | 121 kts | 60° |
| 2026-05-06 12:27 | 38.84470 | 1.30489 | 931 ft | 123 kts | 61° |
| 2026-05-06 12:28 | 38.84867 | 1.31442 | 790 ft | 121 kts | 62° |
| 2026-05-06 12:28 | 38.85257 | 1.32386 | 649 ft | 118 kts | 65° |
| 2026-05-06 12:28 | 38.85508 | 1.33007 | 523 ft | 121 kts | 64° |
| 2026-05-06 12:28 | 38.85910 | 1.33977 | 400 ft | 127 kts | 65° |
| 2026-05-06 12:29 | 38.86319 | 1.34949 | 241 ft | 120 kts | 67° |
| 2026-05-06 12:29 | 38.86700 | 1.35887 | 53 ft | 116 kts | 66° |
| 2026-05-06 12:29 | 38.87039 | 1.36723 | 28 ft | 85 kts | 62° |
| 2026-05-06 12:29 | 38.87247 | 1.37218 | 30 ft | 47 kts | 63° |
| 2026-05-06 12:30 | 38.87431 | 1.37479 | 33 ft | 35 kts | 28° |
| 2026-05-06 12:30 | 38.87567 | 1.37564 | 43 ft | 11 kts | 342° |
| 2026-05-06 12:30 | 38.87637 | 1.37518 | 46 ft | 12 kts | 329° |
| 2026-05-06 12:30 | 38.87704 | 1.37448 | 49 ft | 11 kts | 284° |
| 2026-05-06 12:31 | 38.87666 | 1.37342 | 48 ft | 15 kts | 241° |
| 2026-05-06 12:31 | 38.87612 | 1.37215 | 48 ft | 16 kts | 243° |
| 2026-05-06 12:31 | 38.87575 | 1.37122 | 47 ft | 7 kts | 243° |
| 2026-05-06 12:31 | 38.87580 | 1.37094 | 47 ft | 3 kts | 320° |
| 2026-05-06 12:32 | 38.87599 | 1.37079 | 48 ft | 4 kts | 329° |
| 2026-05-06 12:32 | 38.87613 | 1.37069 | 49 ft | 2 kts | 332° |
| 2026-05-06 12:32 | 38.87624 | 1.37062 | 48 ft | 1 kts | 332° |
| 2026-05-06 12:32 | 38.87625 | 1.37062 | 48 ft | 0 kts | 332° |